Mount Carmel, Kentucky
Current Conditions -  °F | °C
As of 3:55 AM on Saturday 25 Oct 2014 (Local Time) from KFGX Reporting Station
Clear Clear  
Wind Chill: 42°   Ceiling: Unl
Heat Index: 45°   Visibility: 10mi
Dew Point: 40°   Wind: 5mph
Humidity: 85%   Direction: 210°SSW
Pressure: 30.06"   Gusts: NA
Location:  38.436°N, 83.6931°W
Report Text: KFGX 250755Z AUTO 21004KT 10SM CLR 07/05 A3006 RMK AO2 T00700047
Loading
Personal Weather Stations






























Interactive Weather Map
Tropical Storm Tracking
New forecast layout! Learn more

10-Day Weather Forecast

Advertisements
Track Severe Weather on mobile